sensor_id;sensor_type;location;lat;lon;timestamp;P1;durP1;ratioP1;P2;durP2;ratioP2
13584;SDS011;6863;48.402;9.994;2024-03-02T00:00:36;30.07;;;22.83;;
13584;SDS011;6863;48.402;9.994;2024-03-02T00:03:01;28.33;;;20.37;;
13584;SDS011;6863;48.402;9.994;2024-03-02T00:05:27;26.77;;;20.53;;
13584;SDS011;6863;48.402;9.994;2024-03-02T00:07:57;26.03;;;20.40;;
13584;SDS011;6863;48.402;9.994;2024-03-02T00:10:41;32.93;;;24.30;;
13584;SDS011;6863;48.402;9.994;2024-03-02T00:13:07;37.30;;;25.37;;
13584;SDS011;6863;48.402;9.994;2024-03-02T00:18:12;36.87;;;26.57;;
13584;SDS011;6863;48.402;9.994;2024-03-02T00:20:43;40.00;;;26.93;;
13584;SDS011;6863;48.402;9.994;2024-03-02T00:23:10;37.67;;;27.97;;
13584;SDS011;6863;48.402;9.994;2024-03-02T00:25:49;36.10;;;25.80;;
13584;SDS011;6863;48.402;9.994;2024-03-02T00:28:24;35.53;;;26.13;;
13584;SDS011;6863;48.402;9.994;2024-03-02T00:30:58;32.50;;;24.43;;
13584;SDS011;6863;48.402;9.994;2024-03-02T00:33:27;33.80;;;24.07;;
13584;SDS011;6863;48.402;9.994;2024-03-02T00:35:59;36.00;;;25.07;;
13584;SDS011;6863;48.402;9.994;2024-03-02T00:38:26;35.07;;;24.00;;
13584;SDS011;6863;48.402;9.994;2024-03-02T00:40:52;31.27;;;25.07;;
13584;SDS011;6863;48.402;9.994;2024-03-02T00:46:04;31.43;;;24.70;;
13584;SDS011;6863;48.402;9.994;2024-03-02T00:48:31;36.00;;;25.40;;
13584;SDS011;6863;48.402;9.994;2024-03-02T00:50:57;30.50;;;23.93;;
13584;SDS011;6863;48.402;9.994;2024-03-02T00:53:23;29.67;;;23.57;;
13584;SDS011;6863;48.402;9.994;2024-03-02T00:55:51;31.83;;;24.10;;
13584;SDS011;6863;48.402;9.994;2024-03-02T00:58:17;32.93;;;25.53;;
13584;SDS011;6863;48.402;9.994;2024-03-02T01:00:43;30.50;;;23.57;;
13584;SDS011;6863;48.402;9.994;2024-03-02T01:03:08;29.73;;;23.57;;
13584;SDS011;6863;48.402;9.994;2024-03-02T01:05:35;31.03;;;22.17;;
13584;SDS011;6863;48.402;9.994;2024-03-02T01:08:01;28.40;;;23.50;;
13584;SDS011;6863;48.402;9.994;2024-03-02T01:10:27;32.13;;;24.63;;
13584;SDS011;6863;48.402;9.994;2024-03-02T01:12:52;32.67;;;24.80;;
13584;SDS011;6863;48.402;9.994;2024-03-02T01:15:18;27.67;;;21.93;;
13584;SDS011;6863;48.402;9.994;2024-03-02T01:17:44;30.07;;;22.60;;
13584;SDS011;6863;48.402;9.994;2024-03-02T01:20:10;27.73;;;21.70;;
13584;SDS011;6863;48.402;9.994;2024-03-02T01:22:36;25.87;;;21.33;;
13584;SDS011;6863;48.402;9.994;2024-03-02T01:25:02;27.70;;;20.77;;
13584;SDS011;6863;48.402;9.994;2024-03-02T01:27:28;27.27;;;20.60;;
13584;SDS011;6863;48.402;9.994;2024-03-02T01:29:53;27.50;;;21.60;;
13584;SDS011;6863;48.402;9.994;2024-03-02T01:32:19;26.77;;;20.27;;
13584;SDS011;6863;48.402;9.994;2024-03-02T01:34:45;25.10;;;20.90;;
13584;SDS011;6863;48.402;9.994;2024-03-02T01:37:10;28.90;;;22.07;;
13584;SDS011;6863;48.402;9.994;2024-03-02T01:39:36;24.60;;;19.70;;
13584;SDS011;6863;48.402;9.994;2024-03-02T01:42:01;25.07;;;19.20;;
13584;SDS011;6863;48.402;9.994;2024-03-02T01:44:27;27.10;;;20.77;;
13584;SDS011;6863;48.402;9.994;2024-03-02T01:46:53;23.80;;;19.60;;
13584;SDS011;6863;48.402;9.994;2024-03-02T01:49:18;24.30;;;19.07;;
13584;SDS011;6863;48.402;9.994;2024-03-02T01:51:44;22.70;;;18.63;;
13584;SDS011;6863;48.402;9.994;2024-03-02T01:54:09;24.60;;;18.70;;
13584;SDS011;6863;48.402;9.994;2024-03-02T01:56:35;21.03;;;18.07;;
13584;SDS011;6863;48.402;9.994;2024-03-02T01:59:01;20.13;;;17.63;;
13584;SDS011;6863;48.402;9.994;2024-03-02T02:01:27;22.93;;;19.30;;
13584;SDS011;6863;48.402;9.994;2024-03-02T02:03:52;23.50;;;18.87;;
13584;SDS011;6863;48.402;9.994;2024-03-02T02:06:18;23.00;;;19.03;;
13584;SDS011;6863;48.402;9.994;2024-03-02T02:08:43;21.37;;;18.93;;
13584;SDS011;6863;48.402;9.994;2024-03-02T02:11:10;23.33;;;18.17;;
13584;SDS011;6863;48.402;9.994;2024-03-02T02:13:36;23.80;;;18.40;;
13584;SDS011;6863;48.402;9.994;2024-03-02T02:16:05;26.57;;;19.97;;
13584;SDS011;6863;48.402;9.994;2024-03-02T02:18:31;27.10;;;21.50;;
13584;SDS011;6863;48.402;9.994;2024-03-02T02:20:57;28.43;;;21.77;;
13584;SDS011;6863;48.402;9.994;2024-03-02T02:23:23;28.77;;;22.30;;
13584;SDS011;6863;48.402;9.994;2024-03-02T02:25:48;31.30;;;24.03;;
13584;SDS011;6863;48.402;9.994;2024-03-02T02:28:14;30.40;;;23.10;;
13584;SDS011;6863;48.402;9.994;2024-03-02T02:30:39;30.40;;;21.67;;
13584;SDS011;6863;48.402;9.994;2024-03-02T02:33:05;37.70;;;24.93;;
13584;SDS011;6863;48.402;9.994;2024-03-02T02:35:30;32.87;;;22.60;;
13584;SDS011;6863;48.402;9.994;2024-03-02T02:37:56;34.40;;;24.30;;
13584;SDS011;6863;48.402;9.994;2024-03-02T02:40:23;38.17;;;24.00;;
13584;SDS011;6863;48.402;9.994;2024-03-02T02:42:49;34.37;;;25.17;;
13584;SDS011;6863;48.402;9.994;2024-03-02T02:45:17;34.37;;;25.13;;
13584;SDS011;6863;48.402;9.994;2024-03-02T02:47:43;31.90;;;24.00;;
13584;SDS011;6863;48.402;9.994;2024-03-02T02:50:09;34.70;;;23.83;;
13584;SDS011;6863;48.402;9.994;2024-03-02T02:52:37;32.20;;;24.63;;
13584;SDS011;6863;48.402;9.994;2024-03-02T02:55:05;35.57;;;25.07;;
13584;SDS011;6863;48.402;9.994;2024-03-02T02:57:32;34.70;;;24.23;;
13584;SDS011;6863;48.402;9.994;2024-03-02T03:00:01;32.03;;;23.70;;
13584;SDS011;6863;48.402;9.994;2024-03-02T03:02:34;33.53;;;24.17;;
13584;SDS011;6863;48.402;9.994;2024-03-02T03:04:59;35.03;;;24.67;;
13584;SDS011;6863;48.402;9.994;2024-03-02T03:07:25;40.47;;;25.90;;
13584;SDS011;6863;48.402;9.994;2024-03-02T03:09:51;37.13;;;25.97;;
13584;SDS011;6863;48.402;9.994;2024-03-02T03:12:16;39.30;;;25.77;;
13584;SDS011;6863;48.402;9.994;2024-03-02T03:14:42;36.90;;;24.47;;
13584;SDS011;6863;48.402;9.994;2024-03-02T03:17:07;29.20;;;22.73;;
13584;SDS011;6863;48.402;9.994;2024-03-02T03:19:33;31.67;;;24.07;;
13584;SDS011;6863;48.402;9.994;2024-03-02T03:21:59;34.10;;;25.07;;
13584;SDS011;6863;48.402;9.994;2024-03-02T03:24:24;31.23;;;23.27;;
13584;SDS011;6863;48.402;9.994;2024-03-02T03:26:50;33.73;;;24.20;;
13584;SDS011;6863;48.402;9.994;2024-03-02T03:29:15;43.67;;;26.20;;
13584;SDS011;6863;48.402;9.994;2024-03-02T03:31:41;39.47;;;26.20;;
13584;SDS011;6863;48.402;9.994;2024-03-02T03:34:06;33.40;;;25.37;;
13584;SDS011;6863;48.402;9.994;2024-03-02T03:36:32;38.80;;;26.63;;
13584;SDS011;6863;48.402;9.994;2024-03-02T03:38:57;36.63;;;25.57;;
13584;SDS011;6863;48.402;9.994;2024-03-02T03:41:23;33.77;;;24.70;;
13584;SDS011;6863;48.402;9.994;2024-03-02T03:43:49;46.50;;;27.10;;
13584;SDS011;6863;48.402;9.994;2024-03-02T03:46:15;64.20;;;27.20;;
13584;SDS011;6863;48.402;9.994;2024-03-02T03:48:40;38.00;;;24.37;;
13584;SDS011;6863;48.402;9.994;2024-03-02T03:51:07;51.20;;;26.00;;
13584;SDS011;6863;48.402;9.994;2024-03-02T03:53:32;32.77;;;23.93;;
13584;SDS011;6863;48.402;9.994;2024-03-02T03:55:58;40.30;;;25.97;;
13584;SDS011;6863;48.402;9.994;2024-03-02T03:58:23;34.23;;;24.00;;
13584;SDS011;6863;48.402;9.994;2024-03-02T04:00:49;31.87;;;23.43;;
13584;SDS011;6863;48.402;9.994;2024-03-02T04:03:14;33.80;;;24.37;;
13584;SDS011;6863;48.402;9.994;2024-03-02T04:05:40;47.63;;;25.90;;
13584;SDS011;6863;48.402;9.994;2024-03-02T04:08:06;60.37;;;26.10;;
13584;SDS011;6863;48.402;9.994;2024-03-02T04:10:31;34.93;;;23.20;;
13584;SDS011;6863;48.402;9.994;2024-03-02T04:12:57;32.70;;;24.77;;
13584;SDS011;6863;48.402;9.994;2024-03-02T04:15:23;34.17;;;24.23;;
13584;SDS011;6863;48.402;9.994;2024-03-02T04:17:48;45.73;;;25.20;;
13584;SDS011;6863;48.402;9.994;2024-03-02T04:20:14;41.90;;;26.17;;
13584;SDS011;6863;48.402;9.994;2024-03-02T04:22:39;34.07;;;24.00;;
13584;SDS011;6863;48.402;9.994;2024-03-02T04:25:05;42.43;;;26.43;;
13584;SDS011;6863;48.402;9.994;2024-03-02T04:27:32;38.30;;;26.17;;
13584;SDS011;6863;48.402;9.994;2024-03-02T04:29:58;34.03;;;24.23;;
13584;SDS011;6863;48.402;9.994;2024-03-02T04:32:25;34.27;;;24.43;;
13584;SDS011;6863;48.402;9.994;2024-03-02T04:34:51;32.20;;;24.43;;
13584;SDS011;6863;48.402;9.994;2024-03-02T04:37:17;31.60;;;22.80;;
13584;SDS011;6863;48.402;9.994;2024-03-02T04:39:42;31.67;;;24.40;;
13584;SDS011;6863;48.402;9.994;2024-03-02T04:42:08;35.43;;;26.33;;
13584;SDS011;6863;48.402;9.994;2024-03-02T04:44:34;34.13;;;26.33;;
13584;SDS011;6863;48.402;9.994;2024-03-02T04:46:59;40.90;;;26.53;;
13584;SDS011;6863;48.402;9.994;2024-03-02T04:49:25;36.77;;;26.57;;
13584;SDS011;6863;48.402;9.994;2024-03-02T04:51:50;39.10;;;26.93;;
13584;SDS011;6863;48.402;9.994;2024-03-02T04:54:16;34.63;;;25.47;;
13584;SDS011;6863;48.402;9.994;2024-03-02T04:56:42;35.30;;;25.93;;
13584;SDS011;6863;48.402;9.994;2024-03-02T04:59:14;31.87;;;25.40;;
13584;SDS011;6863;48.402;9.994;2024-03-02T05:01:41;30.10;;;23.73;;
13584;SDS011;6863;48.402;9.994;2024-03-02T05:04:07;29.00;;;22.70;;
13584;SDS011;6863;48.402;9.994;2024-03-02T05:06:32;32.23;;;23.17;;
13584;SDS011;6863;48.402;9.994;2024-03-02T05:08:58;32.17;;;23.67;;
13584;SDS011;6863;48.402;9.994;2024-03-02T05:11:23;29.27;;;23.60;;
13584;SDS011;6863;48.402;9.994;2024-03-02T05:14:04;28.73;;;21.30;;
13584;SDS011;6863;48.402;9.994;2024-03-02T05:16:34;28.53;;;23.40;;
13584;SDS011;6863;48.402;9.994;2024-03-02T05:19:00;27.87;;;23.37;;
13584;SDS011;6863;48.402;9.994;2024-03-02T05:21:26;26.87;;;21.73;;
13584;SDS011;6863;48.402;9.994;2024-03-02T05:23:52;28.90;;;23.03;;
13584;SDS011;6863;48.402;9.994;2024-03-02T05:26:17;26.17;;;21.73;;
13584;SDS011;6863;48.402;9.994;2024-03-02T05:28:43;29.00;;;22.40;;
13584;SDS011;6863;48.402;9.994;2024-03-02T05:31:10;26.67;;;21.73;;
13584;SDS011;6863;48.402;9.994;2024-03-02T05:33:39;29.33;;;22.93;;
13584;SDS011;6863;48.402;9.994;2024-03-02T05:36:05;28.17;;;21.67;;
13584;SDS011;6863;48.402;9.994;2024-03-02T05:38:31;30.17;;;22.50;;
13584;SDS011;6863;48.402;9.994;2024-03-02T05:40:57;32.47;;;23.13;;
13584;SDS011;6863;48.402;9.994;2024-03-02T05:43:22;34.20;;;23.83;;
13584;SDS011;6863;48.402;9.994;2024-03-02T05:45:48;54.43;;;25.93;;
13584;SDS011;6863;48.402;9.994;2024-03-02T05:48:14;34.70;;;23.73;;
13584;SDS011;6863;48.402;9.994;2024-03-02T05:50:39;49.67;;;27.10;;
13584;SDS011;6863;48.402;9.994;2024-03-02T05:53:05;60.03;;;25.30;;
13584;SDS011;6863;48.402;9.994;2024-03-02T05:55:31;47.20;;;27.67;;
13584;SDS011;6863;48.402;9.994;2024-03-02T05:57:56;46.30;;;26.90;;
13584;SDS011;6863;48.402;9.994;2024-03-02T06:00:31;53.17;;;26.47;;
13584;SDS011;6863;48.402;9.994;2024-03-02T06:02:56;36.87;;;24.73;;
13584;SDS011;6863;48.402;9.994;2024-03-02T06:05:22;35.13;;;25.03;;
13584;SDS011;6863;48.402;9.994;2024-03-02T06:07:47;44.17;;;25.87;;
13584;SDS011;6863;48.402;9.994;2024-03-02T06:10:13;36.50;;;25.50;;
13584;SDS011;6863;48.402;9.994;2024-03-02T06:12:39;41.67;;;24.93;;
13584;SDS011;6863;48.402;9.994;2024-03-02T06:15:05;41.17;;;25.47;;
13584;SDS011;6863;48.402;9.994;2024-03-02T06:17:31;68.03;;;28.50;;
13584;SDS011;6863;48.402;9.994;2024-03-02T06:19:57;40.27;;;25.57;;
13584;SDS011;6863;48.402;9.994;2024-03-02T06:22:23;41.53;;;25.97;;
13584;SDS011;6863;48.402;9.994;2024-03-02T06:24:50;49.80;;;26.90;;
13584;SDS011;6863;48.402;9.994;2024-03-02T06:27:16;34.70;;;25.27;;
13584;SDS011;6863;48.402;9.994;2024-03-02T06:29:41;41.40;;;24.73;;
13584;SDS011;6863;48.402;9.994;2024-03-02T06:32:07;38.00;;;24.37;;
13584;SDS011;6863;48.402;9.994;2024-03-02T06:34:32;35.83;;;24.90;;
13584;SDS011;6863;48.402;9.994;2024-03-02T06:36:58;59.23;;;26.17;;
13584;SDS011;6863;48.402;9.994;2024-03-02T06:39:24;47.03;;;24.97;;
13584;SDS011;6863;48.402;9.994;2024-03-02T06:41:50;88.03;;;27.87;;
13584;SDS011;6863;48.402;9.994;2024-03-02T06:44:16;53.27;;;27.27;;
13584;SDS011;6863;48.402;9.994;2024-03-02T06:46:42;39.43;;;24.70;;
13584;SDS011;6863;48.402;9.994;2024-03-02T06:49:07;35.20;;;24.17;;
13584;SDS011;6863;48.402;9.994;2024-03-02T06:51:35;41.03;;;25.40;;
13584;SDS011;6863;48.402;9.994;2024-03-02T06:54:00;41.97;;;25.80;;
13584;SDS011;6863;48.402;9.994;2024-03-02T06:56:26;37.40;;;25.33;;
13584;SDS011;6863;48.402;9.994;2024-03-02T06:58:51;38.57;;;25.13;;
13584;SDS011;6863;48.402;9.994;2024-03-02T07:01:17;36.50;;;23.67;;
13584;SDS011;6863;48.402;9.994;2024-03-02T07:03:42;34.30;;;23.40;;
13584;SDS011;6863;48.402;9.994;2024-03-02T07:06:09;34.67;;;22.43;;
13584;SDS011;6863;48.402;9.994;2024-03-02T07:08:34;42.57;;;22.30;;
13584;SDS011;6863;48.402;9.994;2024-03-02T07:11:00;50.57;;;24.83;;
13584;SDS011;6863;48.402;9.994;2024-03-02T07:13:25;31.77;;;22.57;;
13584;SDS011;6863;48.402;9.994;2024-03-02T07:15:51;29.57;;;22.13;;
13584;SDS011;6863;48.402;9.994;2024-03-02T07:18:29;31.40;;;22.53;;
13584;SDS011;6863;48.402;9.994;2024-03-02T07:20:56;29.77;;;21.30;;
13584;SDS011;6863;48.402;9.994;2024-03-02T07:23:24;28.63;;;21.93;;
13584;SDS011;6863;48.402;9.994;2024-03-02T07:25:52;31.27;;;20.33;;
13584;SDS011;6863;48.402;9.994;2024-03-02T07:28:21;28.27;;;20.13;;
13584;SDS011;6863;48.402;9.994;2024-03-02T07:30:47;31.50;;;21.70;;
13584;SDS011;6863;48.402;9.994;2024-03-02T07:33:23;28.07;;;20.07;;
13584;SDS011;6863;48.402;9.994;2024-03-02T07:35:49;25.07;;;19.03;;
13584;SDS011;6863;48.402;9.994;2024-03-02T07:38:15;28.83;;;20.23;;
13584;SDS011;6863;48.402;9.994;2024-03-02T07:40:40;30.73;;;21.23;;
13584;SDS011;6863;48.402;9.994;2024-03-02T07:43:06;28.60;;;21.07;;
13584;SDS011;6863;48.402;9.994;2024-03-02T07:45:31;25.97;;;19.47;;
13584;SDS011;6863;48.402;9.994;2024-03-02T07:47:57;33.93;;;21.30;;
13584;SDS011;6863;48.402;9.994;2024-03-02T07:50:23;28.43;;;20.13;;
13584;SDS011;6863;48.402;9.994;2024-03-02T07:52:48;27.23;;;20.63;;
13584;SDS011;6863;48.402;9.994;2024-03-02T07:55:14;26.47;;;18.47;;
13584;SDS011;6863;48.402;9.994;2024-03-02T07:57:40;23.17;;;18.70;;
13584;SDS011;6863;48.402;9.994;2024-03-02T08:00:05;23.00;;;17.60;;
13584;SDS011;6863;48.402;9.994;2024-03-02T08:02:31;23.03;;;17.37;;
13584;SDS011;6863;48.402;9.994;2024-03-02T08:04:57;24.47;;;19.60;;
13584;SDS011;6863;48.402;9.994;2024-03-02T08:07:23;23.30;;;18.27;;
13584;SDS011;6863;48.402;9.994;2024-03-02T08:09:48;26.33;;;19.07;;
13584;SDS011;6863;48.402;9.994;2024-03-02T08:12:14;27.30;;;19.50;;
13584;SDS011;6863;48.402;9.994;2024-03-02T08:14:39;24.73;;;18.83;;
13584;SDS011;6863;48.402;9.994;2024-03-02T08:17:05;21.50;;;16.87;;
13584;SDS011;6863;48.402;9.994;2024-03-02T08:19:34;24.63;;;18.27;;
13584;SDS011;6863;48.402;9.994;2024-03-02T08:22:00;24.57;;;17.50;;
13584;SDS011;6863;48.402;9.994;2024-03-02T08:24:26;25.17;;;18.07;;
13584;SDS011;6863;48.402;9.994;2024-03-02T08:26:51;26.13;;;18.97;;
13584;SDS011;6863;48.402;9.994;2024-03-02T08:29:17;25.30;;;19.30;;
13584;SDS011;6863;48.402;9.994;2024-03-02T08:31:43;24.50;;;17.93;;
13584;SDS011;6863;48.402;9.994;2024-03-02T08:34:08;28.70;;;19.43;;
13584;SDS011;6863;48.402;9.994;2024-03-02T08:36:34;25.80;;;18.97;;
13584;SDS011;6863;48.402;9.994;2024-03-02T08:39:00;26.50;;;18.00;;
13584;SDS011;6863;48.402;9.994;2024-03-02T08:41:27;23.50;;;17.67;;
13584;SDS011;6863;48.402;9.994;2024-03-02T08:43:52;23.33;;;18.73;;
13584;SDS011;6863;48.402;9.994;2024-03-02T08:46:18;24.10;;;17.60;;
13584;SDS011;6863;48.402;9.994;2024-03-02T08:48:44;27.97;;;17.53;;
13584;SDS011;6863;48.402;9.994;2024-03-02T08:51:09;26.00;;;19.53;;
13584;SDS011;6863;48.402;9.994;2024-03-02T08:53:35;23.27;;;17.80;;
13584;SDS011;6863;48.402;9.994;2024-03-02T08:56:01;22.37;;;17.57;;
13584;SDS011;6863;48.402;9.994;2024-03-02T08:58:27;22.30;;;17.83;;
13584;SDS011;6863;48.402;9.994;2024-03-02T09:00:52;23.73;;;18.77;;
13584;SDS011;6863;48.402;9.994;2024-03-02T09:03:18;22.17;;;17.57;;
13584;SDS011;6863;48.402;9.994;2024-03-02T09:05:44;23.40;;;18.23;;
13584;SDS011;6863;48.402;9.994;2024-03-02T09:08:09;20.03;;;17.30;;
13584;SDS011;6863;48.402;9.994;2024-03-02T09:10:35;20.07;;;16.30;;
13584;SDS011;6863;48.402;9.994;2024-03-02T09:13:00;22.03;;;16.47;;
13584;SDS011;6863;48.402;9.994;2024-03-02T09:15:26;24.27;;;16.13;;
13584;SDS011;6863;48.402;9.994;2024-03-02T09:17:52;21.03;;;15.13;;
13584;SDS011;6863;48.402;9.994;2024-03-02T09:20:17;17.60;;;14.33;;
13584;SDS011;6863;48.402;9.994;2024-03-02T09:22:43;17.17;;;15.10;;
13584;SDS011;6863;48.402;9.994;2024-03-02T09:25:08;20.37;;;15.03;;
13584;SDS011;6863;48.402;9.994;2024-03-02T09:27:37;17.63;;;15.03;;
13584;SDS011;6863;48.402;9.994;2024-03-02T09:30:12;17.90;;;14.80;;
13584;SDS011;6863;48.402;9.994;2024-03-02T09:35:07;16.23;;;13.80;;
13584;SDS011;6863;48.402;9.994;2024-03-02T09:37:32;15.03;;;13.50;;
13584;SDS011;6863;48.402;9.994;2024-03-02T09:39:58;15.17;;;13.53;;
13584;SDS011;6863;48.402;9.994;2024-03-02T09:42:24;17.43;;;15.20;;
13584;SDS011;6863;48.402;9.994;2024-03-02T09:44:50;17.23;;;13.70;;
13584;SDS011;6863;48.402;9.994;2024-03-02T09:47:17;14.47;;;12.83;;
13584;SDS011;6863;48.402;9.994;2024-03-02T09:49:42;14.80;;;13.20;;
13584;SDS011;6863;48.402;9.994;2024-03-02T09:52:08;14.03;;;12.60;;
13584;SDS011;6863;48.402;9.994;2024-03-02T09:54:35;15.27;;;13.67;;
13584;SDS011;6863;48.402;9.994;2024-03-02T09:57:01;15.90;;;13.20;;
13584;SDS011;6863;48.402;9.994;2024-03-02T09:59:27;12.90;;;11.57;;
13584;SDS011;6863;48.402;9.994;2024-03-02T10:02:03;13.13;;;11.83;;
13584;SDS011;6863;48.402;9.994;2024-03-02T10:04:32;14.83;;;13.23;;
13584;SDS011;6863;48.402;9.994;2024-03-02T10:07:13;14.23;;;12.77;;
13584;SDS011;6863;48.402;9.994;2024-03-02T10:09:44;13.10;;;11.80;;
13584;SDS011;6863;48.402;9.994;2024-03-02T10:12:11;13.97;;;12.57;;
13584;SDS011;6863;48.402;9.994;2024-03-02T10:14:39;14.47;;;12.97;;
13584;SDS011;6863;48.402;9.994;2024-03-02T10:17:12;13.90;;;12.60;;
13584;SDS011;6863;48.402;9.994;2024-03-02T10:19:38;14.40;;;12.97;;
13584;SDS011;6863;48.402;9.994;2024-03-02T10:22:05;13.10;;;11.80;;
13584;SDS011;6863;48.402;9.994;2024-03-02T10:24:39;13.30;;;12.00;;
13584;SDS011;6863;48.402;9.994;2024-03-02T10:27:16;13.47;;;12.07;;
13584;SDS011;6863;48.402;9.994;2024-03-02T10:29:45;14.37;;;12.97;;
13584;SDS011;6863;48.402;9.994;2024-03-02T10:32:11;14.07;;;12.60;;
13584;SDS011;6863;48.402;9.994;2024-03-02T10:34:47;13.93;;;12.53;;
13584;SDS011;6863;48.402;9.994;2024-03-02T10:37:16;11.75;;;10.73;;
13584;SDS011;6863;48.402;9.994;2024-03-02T10:39:42;11.00;;;10.00;;
13584;SDS011;6863;48.402;9.994;2024-03-02T10:42:08;12.00;;;11.00;;
13584;SDS011;6863;48.402;9.994;2024-03-02T10:44:34;11.30;;;10.40;;
13584;SDS011;6863;48.402;9.994;2024-03-02T10:47:00;11.18;;;10.20;;
13584;SDS011;6863;48.402;9.994;2024-03-02T10:49:29;11.48;;;10.48;;
13584;SDS011;6863;48.402;9.994;2024-03-02T10:51:55;11.23;;;10.32;;
13584;SDS011;6863;48.402;9.994;2024-03-02T10:54:22;11.73;;;10.75;;
13584;SDS011;6863;48.402;9.994;2024-03-02T10:56:51;10.95;;;10.10;;
13584;SDS011;6863;48.402;9.994;2024-03-02T10:59:23;11.82;;;10.75;;
13584;SDS011;6863;48.402;9.994;2024-03-02T11:01:56;11.02;;;10.15;;
13584;SDS011;6863;48.402;9.994;2024-03-02T11:04:24;12.32;;;11.23;;
13584;SDS011;6863;48.402;9.994;2024-03-02T11:06:51;11.75;;;10.75;;
13584;SDS011;6863;48.402;9.994;2024-03-02T11:09:20;10.93;;;10.13;;
13584;SDS011;6863;48.402;9.994;2024-03-02T11:11:49;11.52;;;10.63;;
13584;SDS011;6863;48.402;9.994;2024-03-02T11:14:47;10.63;;;9.82;;
13584;SDS011;6863;48.402;9.994;2024-03-02T11:17:13;11.02;;;10.18;;
13584;SDS011;6863;48.402;9.994;2024-03-02T11:19:41;11.70;;;10.73;;
13584;SDS011;6863;48.402;9.994;2024-03-02T11:22:08;11.70;;;10.80;;
13584;SDS011;6863;48.402;9.994;2024-03-02T11:24:34;11.60;;;10.70;;
13584;SDS011;6863;48.402;9.994;2024-03-02T11:27:00;10.32;;;9.63;;
13584;SDS011;6863;48.402;9.994;2024-03-02T11:32:02;10.40;;;9.63;;
13584;SDS011;6863;48.402;9.994;2024-03-02T11:34:33;9.07;;;8.48;;
13584;SDS011;6863;48.402;9.994;2024-03-02T11:37:03;10.13;;;9.40;;
13584;SDS011;6863;48.402;9.994;2024-03-02T11:39:29;8.95;;;8.25;;
13584;SDS011;6863;48.402;9.994;2024-03-02T11:41:55;9.45;;;8.65;;
13584;SDS011;6863;48.402;9.994;2024-03-02T11:44:22;8.73;;;8.13;;
13584;SDS011;6863;48.402;9.994;2024-03-02T11:47:02;8.55;;;7.95;;
13584;SDS011;6863;48.402;9.994;2024-03-02T11:49:37;7.88;;;7.32;;
13584;SDS011;6863;48.402;9.994;2024-03-02T11:52:11;7.22;;;6.72;;
13584;SDS011;6863;48.402;9.994;2024-03-02T11:54:38;7.30;;;6.80;;
13584;SDS011;6863;48.402;9.994;2024-03-02T15:02:36;6.30;;;5.80;;
13584;SDS011;6863;48.402;9.994;2024-03-02T15:05:04;5.80;;;5.30;;
13584;SDS011;6863;48.402;9.994;2024-03-02T15:07:31;6.22;;;5.72;;
13584;SDS011;6863;48.402;9.994;2024-03-02T15:09:56;6.10;;;5.70;;
13584;SDS011;6863;48.402;9.994;2024-03-02T15:12:22;6.45;;;5.85;;
13584;SDS011;6863;48.402;9.994;2024-03-02T15:14:48;6.47;;;5.88;;
13584;SDS011;6863;48.402;9.994;2024-03-02T15:17:14;6.82;;;6.32;;
13584;SDS011;6863;48.402;9.994;2024-03-02T15:19:43;6.18;;;5.68;;
13584;SDS011;6863;48.402;9.994;2024-03-02T15:22:09;6.15;;;5.68;;
13584;SDS011;6863;48.402;9.994;2024-03-02T15:24:36;7.07;;;6.00;;
13584;SDS011;6863;48.402;9.994;2024-03-02T15:27:02;6.00;;;5.60;;
13584;SDS011;6863;48.402;9.994;2024-03-02T15:29:30;5.95;;;5.50;;
13584;SDS011;6863;48.402;9.994;2024-03-02T15:31:56;5.65;;;5.10;;
13584;SDS011;6863;48.402;9.994;2024-03-02T15:34:22;4.93;;;4.43;;
13584;SDS011;6863;48.402;9.994;2024-03-02T15:36:48;5.47;;;4.97;;
13584;SDS011;6863;48.402;9.994;2024-03-02T15:39:14;5.43;;;5.03;;
13584;SDS011;6863;48.402;9.994;2024-03-02T15:41:40;6.80;;;6.10;;
13584;SDS011;6863;48.402;9.994;2024-03-02T15:44:06;6.78;;;6.15;;
13584;SDS011;6863;48.402;9.994;2024-03-02T15:46:32;7.53;;;6.82;;
13584;SDS011;6863;48.402;9.994;2024-03-02T15:48:58;6.63;;;6.13;;
13584;SDS011;6863;48.402;9.994;2024-03-02T15:51:25;6.68;;;6.07;;
13584;SDS011;6863;48.402;9.994;2024-03-02T15:53:51;6.07;;;5.57;;
13584;SDS011;6863;48.402;9.994;2024-03-02T15:56:17;6.55;;;5.95;;
13584;SDS011;6863;48.402;9.994;2024-03-02T15:58:42;7.60;;;6.45;;
13584;SDS011;6863;48.402;9.994;2024-03-02T16:01:08;8.25;;;6.50;;
13584;SDS011;6863;48.402;9.994;2024-03-02T16:03:34;6.93;;;6.22;;
13584;SDS011;6863;48.402;9.994;2024-03-02T16:05:59;8.02;;;7.32;;
13584;SDS011;6863;48.402;9.994;2024-03-02T16:08:25;8.43;;;7.55;;
13584;SDS011;6863;48.402;9.994;2024-03-02T16:10:50;9.77;;;8.88;;
13584;SDS011;6863;48.402;9.994;2024-03-02T16:13:16;12.30;;;8.73;;
13584;SDS011;6863;48.402;9.994;2024-03-02T16:15:42;10.90;;;9.80;;
13584;SDS011;6863;48.402;9.994;2024-03-02T16:18:07;9.90;;;8.63;;
13584;SDS011;6863;48.402;9.994;2024-03-02T16:20:33;11.00;;;9.80;;
13584;SDS011;6863;48.402;9.994;2024-03-02T16:22:58;12.07;;;9.50;;
13584;SDS011;6863;48.402;9.994;2024-03-02T16:25:24;11.47;;;9.73;;
13584;SDS011;6863;48.402;9.994;2024-03-02T16:27:50;10.80;;;9.70;;
13584;SDS011;6863;48.402;9.994;2024-03-02T16:30:17;14.20;;;10.20;;
13584;SDS011;6863;48.402;9.994;2024-03-02T16:35:10;11.70;;;10.23;;
13584;SDS011;6863;48.402;9.994;2024-03-02T16:37:35;12.27;;;10.80;;
13584;SDS011;6863;48.402;9.994;2024-03-02T16:40:01;12.00;;;10.70;;
13584;SDS011;6863;48.402;9.994;2024-03-02T16:42:26;13.63;;;11.97;;
13584;SDS011;6863;48.402;9.994;2024-03-02T16:44:52;17.20;;;11.37;;
13584;SDS011;6863;48.402;9.994;2024-03-02T16:47:20;17.77;;;13.23;;
13584;SDS011;6863;48.402;9.994;2024-03-02T16:49:47;16.67;;;14.67;;
13584;SDS011;6863;48.402;9.994;2024-03-02T16:52:12;15.20;;;12.50;;
13584;SDS011;6863;48.402;9.994;2024-03-02T16:54:39;17.80;;;14.47;;
13584;SDS011;6863;48.402;9.994;2024-03-02T16:57:05;19.37;;;14.67;;
13584;SDS011;6863;48.402;9.994;2024-03-02T16:59:30;21.40;;;13.90;;
13584;SDS011;6863;48.402;9.994;2024-03-02T17:01:56;19.03;;;16.03;;
13584;SDS011;6863;48.402;9.994;2024-03-02T17:04:22;21.93;;;18.00;;
13584;SDS011;6863;48.402;9.994;2024-03-02T17:06:47;19.40;;;16.37;;
13584;SDS011;6863;48.402;9.994;2024-03-02T17:09:13;17.97;;;15.80;;
13584;SDS011;6863;48.402;9.994;2024-03-02T17:11:38;21.77;;;16.93;;
13584;SDS011;6863;48.402;9.994;2024-03-02T17:14:04;19.43;;;17.17;;
13584;SDS011;6863;48.402;9.994;2024-03-02T17:16:29;20.47;;;17.20;;
13584;SDS011;6863;48.402;9.994;2024-03-02T17:18:55;19.10;;;17.07;;
13584;SDS011;6863;48.402;9.994;2024-03-02T17:21:21;22.97;;;17.87;;
13584;SDS011;6863;48.402;9.994;2024-03-02T17:23:48;21.77;;;17.47;;
13584;SDS011;6863;48.402;9.994;2024-03-02T17:26:13;21.13;;;18.03;;
13584;SDS011;6863;48.402;9.994;2024-03-02T17:28:39;20.57;;;17.90;;
13584;SDS011;6863;48.402;9.994;2024-03-02T17:31:06;25.17;;;20.53;;
13584;SDS011;6863;48.402;9.994;2024-03-02T17:33:31;27.50;;;21.07;;
13584;SDS011;6863;48.402;9.994;2024-03-02T17:35:57;26.73;;;21.10;;
13584;SDS011;6863;48.402;9.994;2024-03-02T17:38:23;25.60;;;21.50;;
13584;SDS011;6863;48.402;9.994;2024-03-02T17:40:49;25.37;;;20.17;;
13584;SDS011;6863;48.402;9.994;2024-03-02T17:43:15;24.87;;;20.87;;
13584;SDS011;6863;48.402;9.994;2024-03-02T17:45:41;25.27;;;20.33;;
13584;SDS011;6863;48.402;9.994;2024-03-02T17:48:07;22.70;;;19.20;;
13584;SDS011;6863;48.402;9.994;2024-03-02T17:50:33;21.33;;;18.53;;
13584;SDS011;6863;48.402;9.994;2024-03-02T17:52:59;24.67;;;18.50;;